Time;durP1;ratioP1;P1;durP2;ratioP2;P2;SDS_P1;SDS_P2;PMS_P1;PMS_P2;Temp;Humidity;BMP_temperature;BMP_pressure;BME280_temperature;BME280_humidity;BME280_pressure;Samples;Min_cycle;Max_cycle;Signal;HPM_P1;HPM_P2
2021/09/20 00:02:04;;;;;;;;;;;14.00;99.90;;;;;;1877000;76;20384;-71
2021/09/20 00:04:31;;;;;;;;;;;14.10;99.90;;;;;;1890770;76;20177;-71
2021/09/20 00:06:58;;;;;;;;;;;14.10;99.90;;;;;;1857264;75;20149;-71
2021/09/20 00:09:25;;;;;;;;;;;14.10;99.90;;;;;;1845944;78;20133;-70
2021/09/20 00:11:51;;;;;;;;;;;14.00;99.90;;;;;;1841451;76;20178;-70
2021/09/20 00:14:18;;;;;;;;;;;14.00;99.90;;;;;;1834817;78;20236;-70
2021/09/20 00:16:45;;;;;;;;;;;14.00;99.90;;;;;;1834796;78;20178;-71
2021/09/20 00:19:12;;;;;;;;;;;14.10;99.90;;;;;;1863668;76;20489;-71
2021/09/20 00:21:39;;;;;;;;;;;14.00;99.90;;;;;;1887195;76;20187;-71
2021/09/20 00:24:05;;;;;;;;;;;14.00;99.90;;;;;;1845960;78;20453;-70
2021/09/20 00:26:32;;;;;;;;;;;14.00;99.90;;;;;;1846154;76;20157;-70
2021/09/20 00:28:59;;;;;;;;;;;14.00;99.90;;;;;;1853429;76;20375;-70
2021/09/20 00:31:26;;;;;;;;;;;14.00;99.90;;;;;;1890581;76;20170;-70
2021/09/20 00:33:53;;;;;;;;;;;13.90;99.90;;;;;;1890731;76;20122;-70
2021/09/20 00:36:19;;;;;;;;;;;14.00;99.90;;;;;;1890512;75;20203;-70
2021/09/20 00:38:46;;;;;;;;;;;14.00;99.90;;;;;;1868098;76;20171;-71
2021/09/20 00:41:13;;;;;;;;;;;14.00;99.90;;;;;;1867599;77;20487;-70
2021/09/20 00:43:40;;;;;;;;;;;14.00;99.90;;;;;;1874041;76;20168;-71
2021/09/20 00:46:08;;;;;;;;;;;14.00;99.90;;;;;;1890622;75;20458;-71
2021/09/20 00:48:35;;;;;;;;;;;14.00;99.90;;;;;;1890633;76;20158;-71
2021/09/20 00:51:03;;;;;;;;;;;13.90;99.90;;;;;;1890467;76;20185;-71
2021/09/20 00:53:30;;;;;;;;;;;13.90;99.90;;;;;;1890744;76;20125;-71
2021/09/20 00:55:56;;;;;;;;;;;13.90;99.90;;;;;;1857641;76;20171;-72
2021/09/20 00:58:23;;;;;;;;;;;13.90;99.90;;;;;;1855077;76;20134;-71
2021/09/20 01:00:50;;;;;;;;;;;13.90;99.90;;;;;;1868580;76;20287;-71
2021/09/20 01:03:17;;;;;;;;;;;13.90;99.90;;;;;;1867409;77;20164;-70
2021/09/20 01:05:44;;;;;;;;;;;13.80;99.90;;;;;;1887385;75;20130;-71
2021/09/20 01:08:11;;;;;;;;;;;13.90;99.90;;;;;;1890528;76;20177;-70
2021/09/20 01:10:38;;;;;;;;;;;13.90;99.90;;;;;;1890799;76;20122;-70
2021/09/20 01:13:05;;;;;;;;;;;13.90;99.90;;;;;;1865550;77;20188;-70
2021/09/20 01:15:33;;;;;;;;;;;13.90;99.90;;;;;;1865812;76;20176;-69
2021/09/20 01:18:00;;;;;;;;;;;13.90;99.90;;;;;;1867702;76;20125;-69
2021/09/20 01:20:27;;;;;;;;;;;13.90;99.90;;;;;;1890741;76;20239;-70
2021/09/20 01:23:01;;;;;;;;;;;13.90;99.90;;;;;;1890613;76;20153;-69
2021/09/20 01:25:29;;;;;;;;;;;13.90;99.90;;;;;;1889634;75;20497;-70
2021/09/20 01:27:56;;;;;;;;;;;13.90;99.90;;;;;;1875136;76;20470;-70
2021/09/20 01:30:23;;;;;;;;;;;13.90;99.90;;;;;;1854162;77;20186;-69
2021/09/20 01:32:50;;;;;;;;;;;13.90;99.90;;;;;;1861880;76;20189;-69
2021/09/20 01:35:17;;;;;;;;;;;13.90;99.90;;;;;;1888753;75;20462;-69
2021/09/20 01:37:44;;;;;;;;;;;13.80;99.90;;;;;;1890705;75;20414;-69
2021/09/20 01:40:11;;;;;;;;;;;13.80;99.90;;;;;;1890317;76;20169;-69
2021/09/20 01:42:38;;;;;;;;;;;13.80;99.90;;;;;;1867628;76;20180;-69
2021/09/20 01:45:05;;;;;;;;;;;13.80;99.90;;;;;;1865599;76;20184;-69
2021/09/20 01:47:32;;;;;;;;;;;13.80;99.90;;;;;;1867497;77;20187;-70
2021/09/20 01:49:59;;;;;;;;;;;13.80;99.90;;;;;;1867368;77;20133;-69
2021/09/20 01:52:26;;;;;;;;;;;13.80;99.90;;;;;;1867518;77;20156;-69
2021/09/20 01:54:53;;;;;;;;;;;13.80;99.90;;;;;;1869821;76;20391;-70
2021/09/20 01:57:22;;;;;;;;;;;13.70;99.90;;;;;;1890572;76;20182;-69
2021/09/20 01:59:48;;;;;;;;;;;13.80;99.90;;;;;;1890616;75;20447;-70
2021/09/20 02:02:15;;;;;;;;;;;13.70;99.90;;;;;;1849441;75;20202;-70
2021/09/20 02:04:42;;;;;;;;;;;13.70;99.90;;;;;;1845918;78;20517;-69
2021/09/20 02:07:08;;;;;;;;;;;13.70;99.90;;;;;;1845747;76;20172;-69
2021/09/20 02:09:35;;;;;;;;;;;13.80;99.90;;;;;;1845880;78;20395;-70
2021/09/20 02:12:02;;;;;;;;;;;13.70;99.90;;;;;;1851769;76;20460;-70
2021/09/20 02:14:29;;;;;;;;;;;13.70;99.90;;;;;;1836146;78;20181;-70
2021/09/20 02:16:56;;;;;;;;;;;13.70;99.90;;;;;;1844059;77;20398;-70
2021/09/20 02:19:23;;;;;;;;;;;13.70;99.90;;;;;;1867183;77;20179;-70
2021/09/20 02:21:49;;;;;;;;;;;13.70;99.90;;;;;;1867425;76;20152;-69
2021/09/20 02:24:16;;;;;;;;;;;13.70;99.90;;;;;;1867244;77;20164;-69
2021/09/20 02:26:43;;;;;;;;;;;13.70;99.90;;;;;;1871888;76;20170;-69
2021/09/20 02:29:10;;;;;;;;;;;13.60;99.90;;;;;;1867347;76;20133;-69
2021/09/20 02:31:37;;;;;;;;;;;13.70;99.90;;;;;;1867355;76;20172;-70
2021/09/20 02:34:04;;;;;;;;;;;13.60;99.90;;;;;;1867335;76;20156;-69
2021/09/20 02:36:31;;;;;;;;;;;13.60;99.90;;;;;;1867340;77;20172;-69
2021/09/20 02:38:58;;;;;;;;;;;13.60;99.90;;;;;;1866836;77;20121;-69
2021/09/20 02:41:24;;;;;;;;;;;13.60;99.90;;;;;;1860569;76;20121;-69
2021/09/20 02:43:51;;;;;;;;;;;13.50;99.90;;;;;;1845864;78;20164;-70
2021/09/20 02:46:18;;;;;;;;;;;13.60;99.90;;;;;;1845916;76;20211;-70
2021/09/20 02:48:45;;;;;;;;;;;13.60;99.90;;;;;;1846097;78;20210;-70
2021/09/20 02:51:12;;;;;;;;;;;13.60;99.90;;;;;;1845942;78;20441;-70
2021/09/20 02:53:38;;;;;;;;;;;13.60;99.90;;;;;;1845997;78;20155;-70
2021/09/20 02:56:06;;;;;;;;;;;13.60;99.90;;;;;;1845916;76;20214;-70
2021/09/20 02:58:33;;;;;;;;;;;13.60;99.90;;;;;;1853133;76;20153;-70
2021/09/20 03:01:00;;;;;;;;;;;13.50;99.90;;;;;;1845925;78;20239;-71
2021/09/20 03:03:26;;;;;;;;;;;13.50;99.90;;;;;;1845850;78;20121;-71
2021/09/20 03:05:53;;;;;;;;;;;13.50;99.90;;;;;;1853026;76;20478;-70
2021/09/20 03:08:20;;;;;;;;;;;13.50;99.90;;;;;;1867573;77;20198;-70
2021/09/20 03:10:47;;;;;;;;;;;13.50;99.90;;;;;;1867372;77;20436;-70
2021/09/20 03:13:14;;;;;;;;;;;13.50;99.90;;;;;;1867136;77;20215;-71
2021/09/20 03:15:40;;;;;;;;;;;13.40;99.90;;;;;;1867036;76;20132;-70
2021/09/20 03:18:07;;;;;;;;;;;13.50;99.90;;;;;;1867075;76;20199;-70
2021/09/20 03:20:34;;;;;;;;;;;13.50;99.90;;;;;;1867262;77;20187;-70
2021/09/20 03:23:01;;;;;;;;;;;13.50;99.90;;;;;;1867324;77;20125;-70
2021/09/20 03:25:28;;;;;;;;;;;13.50;99.90;;;;;;1867462;76;20183;-70
2021/09/20 03:27:54;;;;;;;;;;;13.50;99.90;;;;;;1868820;76;20246;-70
2021/09/20 03:30:21;;;;;;;;;;;13.50;99.90;;;;;;1863885;76;20242;-70
2021/09/20 03:32:48;;;;;;;;;;;13.50;99.90;;;;;;1866068;77;20214;-70
2021/09/20 03:35:16;;;;;;;;;;;13.50;99.90;;;;;;1870899;75;20220;-70
2021/09/20 03:37:44;;;;;;;;;;;13.50;99.90;;;;;;1890860;76;20161;-70
2021/09/20 03:40:12;;;;;;;;;;;13.40;99.90;;;;;;1869072;76;20195;-70
2021/09/20 03:42:39;;;;;;;;;;;13.40;99.90;;;;;;1867699;77;20171;-70
2021/09/20 03:45:06;;;;;;;;;;;13.50;99.90;;;;;;1867362;77;20503;-70
2021/09/20 03:47:32;;;;;;;;;;;13.40;99.90;;;;;;1867413;76;20215;-70
2021/09/20 03:49:59;;;;;;;;;;;13.50;99.90;;;;;;1867456;76;20240;-70
2021/09/20 03:52:26;;;;;;;;;;;13.40;99.90;;;;;;1867450;77;20120;-70
2021/09/20 03:54:53;;;;;;;;;;;13.40;99.90;;;;;;1867386;76;20176;-70
2021/09/20 03:57:20;;;;;;;;;;;13.40;99.90;;;;;;1867438;77;20176;-71
2021/09/20 03:59:46;;;;;;;;;;;13.40;99.90;;;;;;1867631;77;20153;-70
2021/09/20 04:02:13;;;;;;;;;;;13.40;99.90;;;;;;1859408;76;20196;-70
2021/09/20 04:04:40;;;;;;;;;;;13.40;99.90;;;;;;1867444;77;20120;-71
2021/09/20 04:07:07;;;;;;;;;;;13.40;99.90;;;;;;1867501;77;20203;-70
2021/09/20 04:09:34;;;;;;;;;;;13.40;99.90;;;;;;1867371;77;20159;-69
2021/09/20 04:12:00;;;;;;;;;;;13.40;99.90;;;;;;1867406;77;20117;-69
2021/09/20 04:14:27;;;;;;;;;;;13.40;99.90;;;;;;1867360;77;20210;-69
2021/09/20 04:16:54;;;;;;;;;;;13.40;99.90;;;;;;1868739;76;20118;-69
2021/09/20 04:19:21;;;;;;;;;;;13.50;99.90;;;;;;1888776;76;20560;-69
2021/09/20 04:21:48;;;;;;;;;;;13.50;99.90;;;;;;1868948;76;20191;-69
2021/09/20 04:24:14;;;;;;;;;;;13.40;99.90;;;;;;1846249;77;20564;-69
2021/09/20 04:26:41;;;;;;;;;;;13.40;99.90;;;;;;1846079;76;20148;-68
2021/09/20 04:29:08;;;;;;;;;;;13.40;99.90;;;;;;1861536;76;20415;-69
2021/09/20 04:31:35;;;;;;;;;;;13.30;99.90;;;;;;1874171;76;20126;-69
2021/09/20 04:34:02;;;;;;;;;;;13.30;99.90;;;;;;1890295;75;20219;-70
2021/09/20 04:36:28;;;;;;;;;;;13.30;99.90;;;;;;1890760;75;20391;-70
2021/09/20 04:38:55;;;;;;;;;;;13.30;99.90;;;;;;1885882;76;20208;-70
2021/09/20 04:41:22;;;;;;;;;;;13.30;99.90;;;;;;1864317;77;20481;-70
2021/09/20 04:43:49;;;;;;;;;;;13.30;99.90;;;;;;1836254;78;20115;-71
2021/09/20 04:46:16;;;;;;;;;;;13.30;99.90;;;;;;1835949;77;20155;-70
2021/09/20 04:48:42;;;;;;;;;;;13.30;99.90;;;;;;1853930;76;20172;-69
2021/09/20 04:51:09;;;;;;;;;;;13.30;99.90;;;;;;1856110;76;20176;-70
2021/09/20 04:53:36;;;;;;;;;;;13.30;99.90;;;;;;1867401;77;20524;-70
2021/09/20 04:56:03;;;;;;;;;;;13.30;99.90;;;;;;1867127;77;20163;-70
2021/09/20 04:58:30;;;;;;;;;;;13.30;99.90;;;;;;1867200;77;20406;-70
2021/09/20 05:00:56;;;;;;;;;;;13.20;99.90;;;;;;1867253;77;20184;-70
2021/09/20 05:03:24;;;;;;;;;;;13.30;99.90;;;;;;1862938;77;20379;-70
2021/09/20 05:05:51;;;;;;;;;;;13.20;99.90;;;;;;1858758;76;20129;-70
2021/09/20 05:08:18;;;;;;;;;;;13.30;99.90;;;;;;1867246;77;20227;-70
2021/09/20 05:10:46;;;;;;;;;;;13.30;99.90;;;;;;1867520;77;20188;-70
2021/09/20 05:13:12;;;;;;;;;;;13.30;99.90;;;;;;1867340;76;20207;-70
2021/09/20 05:15:39;;;;;;;;;;;13.30;99.90;;;;;;1867342;77;20434;-70
2021/09/20 05:18:06;;;;;;;;;;;13.20;99.90;;;;;;1867416;77;20124;-70
2021/09/20 05:20:33;;;;;;;;;;;13.20;99.90;;;;;;1865384;76;20183;-71
2021/09/20 05:23:00;;;;;;;;;;;13.20;99.90;;;;;;1859100;77;20368;-70
2021/09/20 05:25:26;;;;;;;;;;;13.10;99.90;;;;;;1883986;75;20161;-70
2021/09/20 05:27:53;;;;;;;;;;;13.20;99.90;;;;;;1878767;76;20170;-71
2021/09/20 05:30:20;;;;;;;;;;;13.20;99.90;;;;;;1851214;77;20103;-70
2021/09/20 05:32:47;;;;;;;;;;;13.20;99.90;;;;;;1851324;77;20183;-70
2021/09/20 05:35:14;;;;;;;;;;;13.20;99.90;;;;;;1851112;76;20127;-70
2021/09/20 05:37:42;;;;;;;;;;;13.30;99.90;;;;;;1862321;77;20176;-70
2021/09/20 05:40:09;;;;;;;;;;;13.20;99.90;;;;;;1886070;75;20165;-69
2021/09/20 05:42:36;;;;;;;;;;;13.20;99.90;;;;;;1890673;76;20127;-70
2021/09/20 05:45:04;;;;;;;;;;;13.30;99.90;;;;;;1890537;75;20188;-70
2021/09/20 05:47:30;;;;;;;;;;;13.20;99.90;;;;;;1890730;76;20122;-70
2021/09/20 05:49:57;;;;;;;;;;;13.30;99.90;;;;;;1890718;75;20185;-71
2021/09/20 05:52:25;;;;;;;;;;;13.20;99.90;;;;;;1890592;76;20246;-70
2021/09/20 05:54:52;;;;;;;;;;;13.30;99.90;;;;;;1864301;76;20172;-69
2021/09/20 05:57:19;;;;;;;;;;;13.30;99.90;;;;;;1846492;77;20213;-70
2021/09/20 05:59:45;;;;;;;;;;;13.30;99.90;;;;;;1853350;76;20290;-70
2021/09/20 06:02:12;;;;;;;;;;;13.30;99.90;;;;;;1867594;75;20200;-70
2021/09/20 06:04:39;;;;;;;;;;;13.30;99.90;;;;;;1866557;77;20438;-72
2021/09/20 06:07:06;;;;;;;;;;;13.30;99.90;;;;;;1862939;75;20203;-71
2021/09/20 06:09:35;;;;;;;;;;;13.30;99.90;;;;;;1861244;75;20456;-71
2021/09/20 06:12:01;;;;;;;;;;;13.40;99.90;;;;;;1847093;75;20273;-71
2021/09/20 06:14:28;;;;;;;;;;;13.30;99.90;;;;;;1859815;75;20170;-70
2021/09/20 06:16:55;;;;;;;;;;;13.30;99.90;;;;;;1862838;76;20210;-71
2021/09/20 06:19:21;;;;;;;;;;;13.30;99.90;;;;;;1873938;76;20120;-71
2021/09/20 06:21:50;;;;;;;;;;;13.40;99.90;;;;;;1870030;76;20207;-70
2021/09/20 06:24:17;;;;;;;;;;;13.30;99.90;;;;;;1867722;75;20213;-71
2021/09/20 06:26:44;;;;;;;;;;;13.20;99.90;;;;;;1860411;75;20155;-72
2021/09/20 06:29:11;;;;;;;;;;;13.30;99.90;;;;;;1879113;75;20224;-71
2021/09/20 06:31:39;;;;;;;;;;;13.40;99.90;;;;;;1848477;76;20565;-72
2021/09/20 06:34:06;;;;;;;;;;;13.30;99.90;;;;;;1851443;76;20123;-73
2021/09/20 06:36:33;;;;;;;;;;;13.40;99.90;;;;;;1873886;75;20191;-71
2021/09/20 06:39:00;;;;;;;;;;;13.40;99.90;;;;;;1870269;76;20432;-71
2021/09/20 06:41:26;;;;;;;;;;;13.40;99.90;;;;;;1862267;75;20167;-71
2021/09/20 06:43:54;;;;;;;;;;;13.40;99.90;;;;;;1867592;75;20443;-72
2021/09/20 06:46:20;;;;;;;;;;;13.40;99.90;;;;;;1859289;76;20653;-72
2021/09/20 06:48:47;;;;;;;;;;;13.50;99.90;;;;;;1868551;76;20247;-70
2021/09/20 06:51:14;;;;;;;;;;;13.50;99.90;;;;;;1858679;76;20229;-71
2021/09/20 06:53:41;;;;;;;;;;;13.50;99.90;;;;;;1859515;76;20331;-71
2021/09/20 06:56:08;;;;;;;;;;;13.50;99.90;;;;;;1862663;75;20314;-71
2021/09/20 06:58:35;;;;;;;;;;;13.50;99.90;;;;;;1865873;76;20820;-71
2021/09/20 07:01:01;;;;;;;;;;;13.50;99.90;;;;;;1865526;76;20185;-72
2021/09/20 07:03:28;;;;;;;;;;;13.50;99.90;;;;;;1859269;76;20172;-72
2021/09/20 07:05:56;;;;;;;;;;;13.50;99.90;;;;;;1864696;76;20200;-70
2021/09/20 07:08:23;;;;;;;;;;;13.50;99.90;;;;;;1863158;76;20645;-70
2021/09/20 07:10:49;;;;;;;;;;;13.50;99.90;;;;;;1859340;76;20188;-71
2021/09/20 07:13:16;;;;;;;;;;;13.60;99.90;;;;;;1862473;75;20489;-71
2021/09/20 07:15:43;;;;;;;;;;;13.50;99.90;;;;;;1861329;76;20747;-69
2021/09/20 07:18:10;;;;;;;;;;;13.60;99.90;;;;;;1861392;76;20229;-73
2021/09/20 07:20:37;;;;;;;;;;;13.60;99.90;;;;;;1866993;76;20203;-71
2021/09/20 07:23:04;;;;;;;;;;;13.60;99.90;;;;;;1864017;76;20309;-71
2021/09/20 07:25:31;;;;;;;;;;;13.70;99.90;;;;;;1862787;76;20412;-71
2021/09/20 07:27:58;;;;;;;;;;;13.70;99.90;;;;;;1868380;76;20196;-71
2021/09/20 07:30:24;;;;;;;;;;;13.70;99.90;;;;;;1864027;76;20244;-71
2021/09/20 07:32:52;;;;;;;;;;;13.70;99.90;;;;;;1865467;76;20273;-71
2021/09/20 07:35:19;;;;;;;;;;;13.70;99.90;;;;;;1865898;75;20117;-71
2021/09/20 07:37:48;;;;;;;;;;;13.70;99.90;;;;;;1865316;75;20160;-71
2021/09/20 07:40:15;;;;;;;;;;;13.70;99.90;;;;;;1866654;76;20441;-71
2021/09/20 07:42:42;;;;;;;;;;;13.80;99.90;;;;;;1867029;75;20152;-71
2021/09/20 07:45:09;;;;;;;;;;;13.80;99.90;;;;;;1872621;74;20228;-71
2021/09/20 07:47:36;;;;;;;;;;;13.90;99.90;;;;;;1866876;75;20294;-71
2021/09/20 07:50:04;;;;;;;;;;;13.80;99.90;;;;;;1865503;75;20238;-70
2021/09/20 07:52:31;;;;;;;;;;;13.80;99.90;;;;;;1867328;75;20231;-71
2021/09/20 07:54:58;;;;;;;;;;;13.90;99.90;;;;;;1866866;75;20136;-71
2021/09/20 07:57:25;;;;;;;;;;;14.00;99.90;;;;;;1869106;76;20203;-71
2021/09/20 07:59:52;;;;;;;;;;;14.00;99.90;;;;;;1852051;75;20127;-71
2021/09/20 08:02:19;;;;;;;;;;;13.90;99.90;;;;;;1864530;75;20175;-71
2021/09/20 08:04:46;;;;;;;;;;;14.00;99.90;;;;;;1869661;75;20121;-71
2021/09/20 08:07:13;;;;;;;;;;;14.00;99.90;;;;;;1861364;75;20435;-71
2021/09/20 08:09:40;;;;;;;;;;;14.00;99.90;;;;;;1870532;76;20124;-71
2021/09/20 08:12:06;;;;;;;;;;;14.00;99.90;;;;;;1854713;75;20243;-71
2021/09/20 08:14:33;;;;;;;;;;;14.00;99.90;;;;;;1868792;76;20192;-71
2021/09/20 08:17:00;;;;;;;;;;;14.00;99.90;;;;;;1859284;76;20238;-71
2021/09/20 08:19:27;;;;;;;;;;;14.00;99.90;;;;;;1858351;77;20213;-71
2021/09/20 08:21:54;;;;;;;;;;;14.00;99.90;;;;;;1866860;76;20198;-71
2021/09/20 08:24:21;;;;;;;;;;;14.10;99.90;;;;;;1862580;76;20211;-71
2021/09/20 08:26:48;;;;;;;;;;;14.10;99.90;;;;;;1863453;75;20157;-71
2021/09/20 08:29:14;;;;;;;;;;;14.10;99.90;;;;;;1866745;76;20211;-71
2021/09/20 08:31:41;;;;;;;;;;;14.20;99.90;;;;;;1864668;76;20177;-72
2021/09/20 08:34:08;;;;;;;;;;;14.20;99.90;;;;;;1867622;76;20119;-72
2021/09/20 08:36:35;;;;;;;;;;;14.30;99.90;;;;;;1855153;76;20170;-72
2021/09/20 08:39:03;;;;;;;;;;;14.30;99.90;;;;;;1861147;76;20165;-72
2021/09/20 08:41:30;;;;;;;;;;;14.30;99.90;;;;;;1863665;76;20206;-71
2021/09/20 08:43:57;;;;;;;;;;;14.40;99.90;;;;;;1863999;76;20162;-72
2021/09/20 08:46:24;;;;;;;;;;;14.50;99.90;;;;;;1858938;76;20169;-72
2021/09/20 08:48:52;;;;;;;;;;;14.60;99.90;;;;;;1858991;76;20133;-72
2021/09/20 08:51:19;;;;;;;;;;;14.70;99.90;;;;;;1872240;76;20140;-72
2021/09/20 08:53:47;;;;;;;;;;;14.70;99.90;;;;;;1869855;76;20183;-72
2021/09/20 08:56:14;;;;;;;;;;;14.80;99.90;;;;;;1872113;75;20214;-72
2021/09/20 08:58:41;;;;;;;;;;;14.80;99.90;;;;;;1864385;75;20263;-71
2021/09/20 09:01:08;;;;;;;;;;;14.90;99.90;;;;;;1851391;75;20478;-71
2021/09/20 09:03:34;;;;;;;;;;;15.00;99.90;;;;;;1864944;76;20283;-71
2021/09/20 09:06:01;;;;;;;;;;;15.00;99.90;;;;;;1848580;76;20164;-70
2021/09/20 09:08:33;;;;;;;;;;;15.00;99.90;;;;;;1867594;76;20207;-71
2021/09/20 09:11:01;;;;;;;;;;;15.00;99.90;;;;;;1857479;75;20202;-71
2021/09/20 09:13:36;;;;;;;;;;;15.10;99.90;;;;;;1879040;75;20191;-71
2021/09/20 09:16:04;;;;;;;;;;;15.10;99.90;;;;;;1866131;75;20522;-71
2021/09/20 09:18:32;;;;;;;;;;;15.20;99.90;;;;;;1890487;75;20168;-72
2021/09/20 09:20:59;;;;;;;;;;;15.30;99.90;;;;;;1872162;75;20450;-72
2021/09/20 09:23:26;;;;;;;;;;;15.30;99.90;;;;;;1863744;75;20334;-71
2021/09/20 09:25:52;;;;;;;;;;;15.30;99.90;;;;;;1880077;75;20453;-72
2021/09/20 09:28:24;;;;;;;;;;;15.40;99.90;;;;;;1880339;75;20126;-71
2021/09/20 09:30:52;;;;;;;;;;;15.40;99.90;;;;;;1877782;75;20185;-73
2021/09/20 09:33:20;;;;;;;;;;;15.50;99.90;;;;;;1876375;75;20201;-73
2021/09/20 09:35:48;;;;;;;;;;;15.60;99.90;;;;;;1874316;75;20609;-72
2021/09/20 09:38:16;;;;;;;;;;;15.60;99.90;;;;;;1873955;75;20276;-72
2021/09/20 09:40:59;;;;;;;;;;;15.60;99.90;;;;;;1870243;75;20259;-73
2021/09/20 09:43:29;;;;;;;;;;;15.60;99.90;;;;;;1828414;76;20428;-73
2021/09/20 09:46:00;;;;;;;;;;;15.50;99.90;;;;;;1851449;76;20207;-73
2021/09/20 09:48:28;;;;;;;;;;;15.40;99.90;;;;;;1830404;78;20227;-73
2021/09/20 09:50:56;;;;;;;;;;;15.40;99.90;;;;;;1821776;77;20611;-72
2021/09/20 09:53:33;;;;;;;;;;;15.40;99.90;;;;;;1820328;78;20224;-74
2021/09/20 09:56:02;;;;;;;;;;;15.40;99.90;;;;;;1868178;75;20290;-73
2021/09/20 09:58:29;;;;;;;;;;;15.50;99.90;;;;;;1850519;76;20202;-74
2021/09/20 10:01:16;;;;;;;;;;;15.50;99.90;;;;;;1860037;76;20133;-73
2021/09/20 10:04:01;;;;;;;;;;;15.60;99.90;;;;;;1855186;76;20139;-73
2021/09/20 10:06:27;;;;;;;;;;;15.60;99.90;;;;;;1854951;76;20462;-71
2021/09/20 10:08:54;;;;;;;;;;;15.60;99.90;;;;;;1857336;76;20160;-73
2021/09/20 10:11:21;;;;;;;;;;;15.60;99.90;;;;;;1850925;76;20209;-72
2021/09/20 10:13:49;;;;;;;;;;;15.60;99.90;;;;;;1856782;76;20239;-72
2021/09/20 10:16:16;;;;;;;;;;;15.60;99.90;;;;;;1854213;76;20512;-72
2021/09/20 10:18:43;;;;;;;;;;;15.50;99.90;;;;;;1852026;76;20229;-72
2021/09/20 10:21:09;;;;;;;;;;;15.50;99.90;;;;;;1854414;76;20194;-71
2021/09/20 10:23:38;;;;;;;;;;;15.60;99.90;;;;;;1855241;76;20138;-70
2021/09/20 10:26:04;;;;;;;;;;;15.50;99.90;;;;;;1857809;75;20189;-71
2021/09/20 10:28:31;;;;;;;;;;;15.50;99.90;;;;;;1857674;76;20608;-70
2021/09/20 10:30:58;;;;;;;;;;;15.50;99.90;;;;;;1862496;76;20172;-71
2021/09/20 10:33:28;;;;;;;;;;;15.50;99.90;;;;;;1855159;76;20427;-71
2021/09/20 10:35:55;;;;;;;;;;;15.50;99.90;;;;;;1864094;73;20242;-80
2021/09/20 10:38:26;;;;;;;;;;;15.40;99.90;;;;;;1905463;74;20487;-80
2021/09/20 10:41:11;;;;;;;;;;;15.40;99.90;;;;;;1921229;73;20125;-81
2021/09/20 10:43:39;;;;;;;;;;;15.40;99.90;;;;;;1876491;75;20164;-79
2021/09/20 10:46:07;;;;;;;;;;;15.50;99.90;;;;;;1894937;75;20204;-80
2021/09/20 10:48:48;;;;;;;;;;;15.40;99.90;;;;;;1920688;74;20423;-80
2021/09/20 10:51:16;;;;;;;;;;;15.50;99.90;;;;;;1910529;74;20161;-79
2021/09/20 10:53:43;;;;;;;;;;;15.50;99.90;;;;;;1910662;74;20454;-79
2021/09/20 10:56:11;;;;;;;;;;;15.50;99.90;;;;;;1935057;74;20158;-79
2021/09/20 10:58:54;;;;;;;;;;;15.60;99.90;;;;;;1927913;73;20157;-79
2021/09/20 11:01:26;;;;;;;;;;;15.50;99.90;;;;;;1928328;74;20106;-79
2021/09/20 11:03:53;;;;;;;;;;;15.50;99.90;;;;;;1907327;74;20168;-79
2021/09/20 11:06:21;;;;;;;;;;;15.50;99.90;;;;;;1899824;75;20184;-79
2021/09/20 11:08:48;;;;;;;;;;;15.60;99.90;;;;;;1912367;74;20221;-81
2021/09/20 11:11:33;;;;;;;;;;;15.50;99.90;;;;;;1926995;74;20184;-81
2021/09/20 11:14:01;;;;;;;;;;;15.50;99.90;;;;;;1880095;74;20160;-80
2021/09/20 11:16:46;;;;;;;;;;;15.60;99.90;;;;;;1896044;74;20456;-80
2021/09/20 11:19:29;;;;;;;;;;;15.70;99.90;;;;;;1902981;74;20163;-80
2021/09/20 11:22:09;;;;;;;;;;;15.70;99.90;;;;;;1903057;74;20150;-81
2021/09/20 11:24:36;;;;;;;;;;;15.80;99.90;;;;;;1903315;74;20177;-81
2021/09/20 11:27:04;;;;;;;;;;;15.90;99.90;;;;;;1900586;74;20479;-81
2021/09/20 11:29:31;;;;;;;;;;;15.90;99.90;;;;;;1897766;74;20369;-82
2021/09/20 11:31:59;;;;;;;;;;;15.90;99.90;;;;;;1899862;74;20400;-81
2021/09/20 11:34:27;;;;;;;;;;;16.00;99.90;;;;;;1905031;74;20130;-82
2021/09/20 11:36:54;;;;;;;;;;;16.00;99.90;;;;;;1901258;74;20166;-80
2021/09/20 11:39:21;;;;;;;;;;;16.00;99.90;;;;;;1897059;74;20265;-80
2021/09/20 11:41:50;;;;;;;;;;;16.10;99.90;;;;;;1899722;74;20174;-80
2021/09/20 11:44:18;;;;;;;;;;;16.00;99.90;;;;;;1898291;74;20248;-79
2021/09/20 11:46:46;;;;;;;;;;;16.00;99.90;;;;;;1916383;74;20147;-78
2021/09/20 11:49:16;;;;;;;;;;;16.10;99.90;;;;;;1896313;74;20202;-79
2021/09/20 11:51:42;;;;;;;;;;;16.10;99.90;;;;;;1900023;74;20467;-81
2021/09/20 11:54:10;;;;;;;;;;;16.10;99.90;;;;;;1896214;75;20586;-80
2021/09/20 11:56:37;;;;;;;;;;;16.10;99.90;;;;;;1896337;75;20159;-80
2021/09/20 11:59:04;;;;;;;;;;;16.20;99.90;;;;;;1896334;75;20433;-80
2021/09/20 12:01:31;;;;;;;;;;;16.20;99.90;;;;;;1898613;75;20196;-82
2021/09/20 12:03:58;;;;;;;;;;;16.20;99.90;;;;;;1897610;74;20515;-82
2021/09/20 12:06:29;;;;;;;;;;;16.20;99.90;;;;;;1896997;74;20159;-79
2021/09/20 12:08:57;;;;;;;;;;;16.20;99.90;;;;;;1898829;74;20222;-79
2021/09/20 12:11:25;;;;;;;;;;;16.30;99.90;;;;;;1897140;74;20120;-77
2021/09/20 12:13:51;;;;;;;;;;;16.30;99.90;;;;;;1898027;74;20166;-76
2021/09/20 12:16:19;;;;;;;;;;;16.30;99.90;;;;;;1895713;74;20198;-81
2021/09/20 12:18:46;;;;;;;;;;;16.30;99.90;;;;;;1897951;74;20167;-80
2021/09/20 12:21:14;;;;;;;;;;;16.40;99.90;;;;;;1898301;74;20232;-80
2021/09/20 12:23:43;;;;;;;;;;;16.40;99.90;;;;;;1900286;74;20266;-80
2021/09/20 12:26:11;;;;;;;;;;;16.40;99.90;;;;;;1915813;74;20168;-78
2021/09/20 12:28:52;;;;;;;;;;;16.40;99.90;;;;;;1898351;74;20279;-78
2021/09/20 12:31:32;;;;;;;;;;;16.40;99.90;;;;;;1900583;74;20210;-77
2021/09/20 12:34:08;;;;;;;;;;;16.40;99.90;;;;;;1916299;74;20106;-77
2021/09/20 12:36:39;;;;;;;;;;;16.50;99.90;;;;;;1916931;74;20121;-76
2021/09/20 12:39:13;;;;;;;;;;;16.50;99.90;;;;;;1912391;74;20237;-76
2021/09/20 12:41:42;;;;;;;;;;;17.10;99.90;;;;;;1911613;74;20154;-75
2021/09/20 12:44:09;;;;;;;;;;;17.60;99.90;;;;;;1911379;73;20212;-77
2021/09/20 12:46:37;;;;;;;;;;;17.80;99.90;;;;;;1913427;73;20770;-77
2021/09/20 12:49:04;;;;;;;;;;;17.90;99.90;;;;;;1914705;74;20434;-76
2021/09/20 12:51:33;;;;;;;;;;;17.90;99.90;;;;;;1911010;74;20950;-76
2021/09/20 12:54:00;;;;;;;;;;;17.70;99.90;;;;;;1880485;75;20266;-76
2021/09/20 12:56:28;;;;;;;;;;;17.60;99.90;;;;;;1882122;75;20158;-77
2021/09/20 12:58:57;;;;;;;;;;;17.50;99.90;;;;;;1854275;75;20481;-77
2021/09/20 13:01:25;;;;;;;;;;;17.30;99.90;;;;;;1883146;75;20210;-77
2021/09/20 13:03:59;;;;;;;;;;;17.20;99.90;;;;;;1911204;74;20191;-76
2021/09/20 13:06:27;;;;;;;;;;;17.10;99.90;;;;;;1913776;74;20125;-77
2021/09/20 13:09:01;;;;;;;;;;;17.00;99.90;;;;;;1916281;74;20169;-77
2021/09/20 13:11:30;;;;;;;;;;;16.90;99.90;;;;;;1906471;74;20154;-76
2021/09/20 13:13:56;;;;;;;;;;;16.80;99.90;;;;;;1912324;75;20216;-76
2021/09/20 13:16:25;;;;;;;;;;;16.70;99.90;;;;;;1905638;74;20213;-77
2021/09/20 13:18:53;;;;;;;;;;;16.60;99.90;;;;;;1867783;75;20180;-83
2021/09/20 13:21:24;;;;;;;;;;;16.50;99.90;;;;;;1911562;73;20198;-82
2021/09/20 13:23:52;;;;;;;;;;;16.40;99.90;;;;;;1875398;74;20506;-79
2021/09/20 13:26:20;;;;;;;;;;;16.40;99.90;;;;;;1868998;75;20114;-80
2021/09/20 13:28:48;;;;;;;;;;;16.40;99.90;;;;;;1866993;75;20130;-79
2021/09/20 13:31:16;;;;;;;;;;;16.40;99.90;;;;;;1877874;76;20203;-80
2021/09/20 13:33:43;;;;;;;;;;;16.40;99.90;;;;;;1877017;75;20190;-80
2021/09/20 13:36:12;;;;;;;;;;;16.30;99.90;;;;;;1915158;74;20201;-80
2021/09/20 13:38:40;;;;;;;;;;;16.20;99.90;;;;;;1915684;74;20106;-80
2021/09/20 13:41:13;;;;;;;;;;;16.20;99.90;;;;;;1839997;75;20192;-78
2021/09/20 13:43:38;;;;;;;;;;;16.20;99.90;;;;;;1901428;75;20127;-79
2021/09/20 13:46:06;;;;;;;;;;;16.20;99.90;;;;;;1902453;75;20152;-79
2021/09/20 13:48:33;;;;;;;;;;;16.20;99.90;;;;;;1903522;74;20178;-79
2021/09/20 13:51:00;;;;;;;;;;;16.20;99.90;;;;;;1904039;74;20178;-78
2021/09/20 13:53:27;;;;;;;;;;;16.10;99.90;;;;;;1905939;75;20210;-79
2021/09/20 13:55:53;;;;;;;;;;;16.10;99.90;;;;;;1900633;74;20127;-79
2021/09/20 13:58:20;;;;;;;;;;;16.10;99.90;;;;;;1900624;74;20268;-79
2021/09/20 14:00:48;;;;;;;;;;;16.00;99.90;;;;;;1899790;75;20190;-79
2021/09/20 14:03:15;;;;;;;;;;;16.00;99.90;;;;;;1894896;75;20185;-79
2021/09/20 14:05:43;;;;;;;;;;;15.90;99.90;;;;;;1899124;74;20297;-79
2021/09/20 14:08:11;;;;;;;;;;;15.90;99.90;;;;;;1912748;74;20776;-78
2021/09/20 14:10:38;;;;;;;;;;;15.90;99.90;;;;;;1902955;75;20415;-78
2021/09/20 14:13:05;;;;;;;;;;;15.80;99.90;;;;;;1897458;74;20217;-78
2021/09/20 14:15:33;;;;;;;;;;;15.70;99.90;;;;;;1870301;75;20165;-78
2021/09/20 14:18:00;;;;;;;;;;;15.80;99.90;;;;;;1885520;74;20167;-77
2021/09/20 14:20:28;;;;;;;;;;;15.70;99.90;;;;;;1897236;75;20177;-77